sensor_id;sensor_type;location;lat;lon;timestamp;P1;durP1;ratioP1;P2;durP2;ratioP2
70985;SDS011;58645;43.068;25.610;2022-08-11T00:01:15;4.03;;;1.48;;
70985;SDS011;58645;43.068;25.610;2022-08-11T00:03:49;3.15;;;1.35;;
70985;SDS011;58645;43.068;25.610;2022-08-11T00:06:22;3.33;;;1.13;;
70985;SDS011;58645;43.068;25.610;2022-08-11T00:08:54;4.47;;;1.35;;
70985;SDS011;58645;43.068;25.610;2022-08-11T00:11:21;3.28;;;1.10;;
70985;SDS011;58645;43.068;25.610;2022-08-11T00:14:01;4.32;;;1.42;;
70985;SDS011;58645;43.068;25.610;2022-08-11T00:16:29;2.15;;;1.27;;
70985;SDS011;58645;43.068;25.610;2022-08-11T00:18:55;2.35;;;1.33;;
70985;SDS011;58645;43.068;25.610;2022-08-11T00:21:24;4.20;;;1.10;;
70985;SDS011;58645;43.068;25.610;2022-08-11T00:23:52;3.42;;;1.45;;
70985;SDS011;58645;43.068;25.610;2022-08-11T00:26:20;2.28;;;1.42;;
70985;SDS011;58645;43.068;25.610;2022-08-11T00:28:47;2.35;;;1.33;;
70985;SDS011;58645;43.068;25.610;2022-08-11T00:31:28;1.77;;;1.10;;
70985;SDS011;58645;43.068;25.610;2022-08-11T00:33:56;1.98;;;1.27;;
70985;SDS011;58645;43.068;25.610;2022-08-11T00:36:42;3.88;;;1.70;;
70985;SDS011;58645;43.068;25.610;2022-08-11T00:39:12;5.30;;;1.50;;
70985;SDS011;58645;43.068;25.610;2022-08-11T00:41:54;3.78;;;1.50;;
70985;SDS011;58645;43.068;25.610;2022-08-11T01:00:57;3.03;;;1.67;;
70985;SDS011;58645;43.068;25.610;2022-08-11T01:35:05;3.70;;;1.50;;
70985;SDS011;58645;43.068;25.610;2022-08-11T01:40:25;3.78;;;1.45;;
70985;SDS011;58645;43.068;25.610;2022-08-11T01:46:00;3.40;;;1.58;;
70985;SDS011;58645;43.068;25.610;2022-08-11T01:48:41;3.70;;;1.33;;
70985;SDS011;58645;43.068;25.610;2022-08-11T01:54:13;2.03;;;1.20;;
70985;SDS011;58645;43.068;25.610;2022-08-11T01:59:42;2.53;;;1.65;;
70985;SDS011;58645;43.068;25.610;2022-08-11T02:02:34;2.55;;;1.25;;
70985;SDS011;58645;43.068;25.610;2022-08-11T02:08:02;3.63;;;1.60;;
70985;SDS011;58645;43.068;25.610;2022-08-11T02:13:33;2.25;;;1.40;;
70985;SDS011;58645;43.068;25.610;2022-08-11T02:22:03;2.28;;;1.73;;
70985;SDS011;58645;43.068;25.610;2022-08-11T02:25:01;2.75;;;1.85;;
70985;SDS011;58645;43.068;25.610;2022-08-11T02:27:44;4.30;;;1.88;;
70985;SDS011;58645;43.068;25.610;2022-08-11T02:30:23;2.20;;;1.70;;
70985;SDS011;58645;43.068;25.610;2022-08-11T02:35:54;2.78;;;1.98;;
70985;SDS011;58645;43.068;25.610;2022-08-11T02:52:24;4.18;;;2.30;;
70985;SDS011;58645;43.068;25.610;2022-08-11T03:00:42;3.35;;;1.98;;
70985;SDS011;58645;43.068;25.610;2022-08-11T03:08:53;5.03;;;2.38;;
70985;SDS011;58645;43.068;25.610;2022-08-11T03:15:09;5.95;;;2.00;;
70985;SDS011;58645;43.068;25.610;2022-08-11T03:28:46;3.08;;;2.22;;
70985;SDS011;58645;43.068;25.610;2022-08-11T03:31:26;3.13;;;1.73;;
70985;SDS011;58645;43.068;25.610;2022-08-11T03:34:04;3.28;;;1.92;;
70985;SDS011;58645;43.068;25.610;2022-08-11T03:48:08;4.40;;;2.22;;
70985;SDS011;58645;43.068;25.610;2022-08-11T03:50:56;4.05;;;2.25;;
70985;SDS011;58645;43.068;25.610;2022-08-11T03:59:06;3.95;;;2.22;;
70985;SDS011;58645;43.068;25.610;2022-08-11T04:30:12;3.50;;;2.15;;
70985;SDS011;58645;43.068;25.610;2022-08-11T04:35:56;3.40;;;2.30;;
70985;SDS011;58645;43.068;25.610;2022-08-11T04:39:12;3.97;;;2.05;;
70985;SDS011;58645;43.068;25.610;2022-08-11T04:47:51;3.45;;;1.60;;
70985;SDS011;58645;43.068;25.610;2022-08-11T04:51:01;4.63;;;2.53;;
70985;SDS011;58645;43.068;25.610;2022-08-11T05:00:41;3.38;;;1.98;;
70985;SDS011;58645;43.068;25.610;2022-08-11T05:06:48;3.05;;;2.15;;
70985;SDS011;58645;43.068;25.610;2022-08-11T05:09:27;6.18;;;1.98;;
70985;SDS011;58645;43.068;25.610;2022-08-11T05:14:48;5.65;;;2.03;;
70985;SDS011;58645;43.068;25.610;2022-08-11T05:17:37;4.18;;;2.28;;
70985;SDS011;58645;43.068;25.610;2022-08-11T05:20:22;4.38;;;1.85;;
70985;SDS011;58645;43.068;25.610;2022-08-11T05:23:09;4.15;;;2.38;;
70985;SDS011;58645;43.068;25.610;2022-08-11T05:25:55;5.45;;;2.40;;
70985;SDS011;58645;43.068;25.610;2022-08-11T05:29:00;3.10;;;1.80;;
70985;SDS011;58645;43.068;25.610;2022-08-11T05:31:50;9.05;;;2.60;;
70985;SDS011;58645;43.068;25.610;2022-08-11T05:34:49;2.72;;;1.67;;
70985;SDS011;58645;43.068;25.610;2022-08-11T05:39:47;4.57;;;2.45;;
70985;SDS011;58645;43.068;25.610;2022-08-11T05:42:37;4.97;;;2.55;;
70985;SDS011;58645;43.068;25.610;2022-08-11T05:45:26;4.63;;;2.17;;
70985;SDS011;58645;43.068;25.610;2022-08-11T05:48:12;3.05;;;2.00;;
70985;SDS011;58645;43.068;25.610;2022-08-11T05:50:58;3.75;;;2.20;;
70985;SDS011;58645;43.068;25.610;2022-08-11T05:54:02;3.47;;;2.08;;
70985;SDS011;58645;43.068;25.610;2022-08-11T05:56:52;3.67;;;2.60;;
70985;SDS011;58645;43.068;25.610;2022-08-11T05:59:20;4.68;;;1.95;;
70985;SDS011;58645;43.068;25.610;2022-08-11T06:01:47;3.67;;;2.58;;
70985;SDS011;58645;43.068;25.610;2022-08-11T06:04:18;6.00;;;1.65;;
70985;SDS011;58645;43.068;25.610;2022-08-11T06:09:19;4.25;;;2.05;;
70985;SDS011;58645;43.068;25.610;2022-08-11T06:11:51;3.50;;;2.38;;
70985;SDS011;58645;43.068;25.610;2022-08-11T06:14:17;5.78;;;2.50;;
70985;SDS011;58645;43.068;25.610;2022-08-11T06:16:46;3.80;;;1.90;;
70985;SDS011;58645;43.068;25.610;2022-08-11T06:19:13;2.42;;;2.00;;
70985;SDS011;58645;43.068;25.610;2022-08-11T06:21:43;2.33;;;1.42;;
70985;SDS011;58645;43.068;25.610;2022-08-11T06:24:12;4.57;;;1.77;;
70985;SDS011;58645;43.068;25.610;2022-08-11T06:26:39;3.35;;;2.38;;
70985;SDS011;58645;43.068;25.610;2022-08-11T06:29:11;2.80;;;1.70;;
70985;SDS011;58645;43.068;25.610;2022-08-11T06:31:42;5.05;;;1.63;;
70985;SDS011;58645;43.068;25.610;2022-08-11T06:40:06;4.63;;;2.00;;
70985;SDS011;58645;43.068;25.610;2022-08-11T06:42:37;7.22;;;1.50;;
70985;SDS011;58645;43.068;25.610;2022-08-11T06:47:54;5.95;;;1.85;;
70985;SDS011;58645;43.068;25.610;2022-08-11T06:50:25;2.83;;;1.50;;
70985;SDS011;58645;43.068;25.610;2022-08-11T06:53:11;2.97;;;1.77;;
70985;SDS011;58645;43.068;25.610;2022-08-11T06:55:42;3.08;;;1.55;;
70985;SDS011;58645;43.068;25.610;2022-08-11T06:58:36;2.65;;;1.50;;
70985;SDS011;58645;43.068;25.610;2022-08-11T07:01:28;3.30;;;1.67;;
70985;SDS011;58645;43.068;25.610;2022-08-11T07:04:29;2.97;;;2.42;;
70985;SDS011;58645;43.068;25.610;2022-08-11T07:07:35;4.57;;;1.98;;
70985;SDS011;58645;43.068;25.610;2022-08-11T07:10:28;3.78;;;2.40;;
70985;SDS011;58645;43.068;25.610;2022-08-11T07:13:27;6.15;;;2.13;;
70985;SDS011;58645;43.068;25.610;2022-08-11T07:16:15;3.35;;;2.30;;
70985;SDS011;58645;43.068;25.610;2022-08-11T07:18:47;1.90;;;1.70;;
70985;SDS011;58645;43.068;25.610;2022-08-11T07:21:33;1.58;;;1.33;;
70985;SDS011;58645;43.068;25.610;2022-08-11T07:24:21;2.00;;;1.60;;
70985;SDS011;58645;43.068;25.610;2022-08-11T07:27:10;4.55;;;2.13;;
70985;SDS011;58645;43.068;25.610;2022-08-11T07:32:28;3.20;;;1.70;;
70985;SDS011;58645;43.068;25.610;2022-08-11T07:35:07;4.13;;;1.63;;
70985;SDS011;58645;43.068;25.610;2022-08-11T07:37:40;3.33;;;1.65;;
70985;SDS011;58645;43.068;25.610;2022-08-11T07:40:09;4.10;;;1.60;;
70985;SDS011;58645;43.068;25.610;2022-08-11T07:42:35;2.50;;;2.30;;
70985;SDS011;58645;43.068;25.610;2022-08-11T07:45:05;2.38;;;1.92;;
70985;SDS011;58645;43.068;25.610;2022-08-11T07:47:51;1.80;;;1.33;;
70985;SDS011;58645;43.068;25.610;2022-08-11T07:50:42;4.50;;;1.67;;
70985;SDS011;58645;43.068;25.610;2022-08-11T07:53:27;2.85;;;1.73;;
70985;SDS011;58645;43.068;25.610;2022-08-11T07:55:55;2.72;;;1.73;;
70985;SDS011;58645;43.068;25.610;2022-08-11T07:58:26;3.13;;;1.70;;
70985;SDS011;58645;43.068;25.610;2022-08-11T08:01:11;4.88;;;2.25;;
70985;SDS011;58645;43.068;25.610;2022-08-11T08:04:05;3.53;;;2.08;;
70985;SDS011;58645;43.068;25.610;2022-08-11T08:06:51;3.72;;;1.83;;
70985;SDS011;58645;43.068;25.610;2022-08-11T08:09:36;5.22;;;2.25;;
70985;SDS011;58645;43.068;25.610;2022-08-11T08:12:22;3.00;;;1.67;;
70985;SDS011;58645;43.068;25.610;2022-08-11T08:15:08;2.55;;;2.08;;
70985;SDS011;58645;43.068;25.610;2022-08-11T08:17:55;2.83;;;1.98;;
70985;SDS011;58645;43.068;25.610;2022-08-11T08:20:26;3.25;;;1.65;;
70985;SDS011;58645;43.068;25.610;2022-08-11T08:23:05;3.17;;;1.63;;
70985;SDS011;58645;43.068;25.610;2022-08-11T08:25:33;2.30;;;1.55;;
70985;SDS011;58645;43.068;25.610;2022-08-11T08:28:04;1.58;;;1.30;;
70985;SDS011;58645;43.068;25.610;2022-08-11T08:30:33;3.75;;;1.98;;
70985;SDS011;58645;43.068;25.610;2022-08-11T08:33:19;2.55;;;1.58;;
70985;SDS011;58645;43.068;25.610;2022-08-11T08:35:53;3.05;;;1.73;;
70985;SDS011;58645;43.068;25.610;2022-08-11T08:41:03;2.58;;;1.52;;
70985;SDS011;58645;43.068;25.610;2022-08-11T08:43:30;1.92;;;1.75;;
70985;SDS011;58645;43.068;25.610;2022-08-11T08:45:58;3.72;;;1.63;;
70985;SDS011;58645;43.068;25.610;2022-08-11T08:48:24;2.95;;;2.08;;
70985;SDS011;58645;43.068;25.610;2022-08-11T08:50:55;3.55;;;1.73;;
70985;SDS011;58645;43.068;25.610;2022-08-11T08:53:45;1.73;;;1.10;;
70985;SDS011;58645;43.068;25.610;2022-08-11T08:56:15;2.30;;;1.42;;
70985;SDS011;58645;43.068;25.610;2022-08-11T08:58:42;2.63;;;1.80;;
70985;SDS011;58645;43.068;25.610;2022-08-11T09:01:12;2.30;;;1.65;;
70985;SDS011;58645;43.068;25.610;2022-08-11T09:03:40;3.08;;;1.55;;
70985;SDS011;58645;43.068;25.610;2022-08-11T09:06:07;4.10;;;1.70;;
70985;SDS011;58645;43.068;25.610;2022-08-11T09:08:34;4.65;;;1.65;;
70985;SDS011;58645;43.068;25.610;2022-08-11T09:11:01;4.28;;;2.22;;
70985;SDS011;58645;43.068;25.610;2022-08-11T09:13:47;3.40;;;2.10;;
70985;SDS011;58645;43.068;25.610;2022-08-11T09:16:14;3.03;;;2.25;;
70985;SDS011;58645;43.068;25.610;2022-08-11T09:18:41;1.88;;;1.70;;
70985;SDS011;58645;43.068;25.610;2022-08-11T09:21:13;2.53;;;1.60;;
70985;SDS011;58645;43.068;25.610;2022-08-11T09:23:41;4.65;;;2.33;;
70985;SDS011;58645;43.068;25.610;2022-08-11T09:26:29;3.63;;;1.63;;
70985;SDS011;58645;43.068;25.610;2022-08-11T09:29:30;2.45;;;2.20;;
70985;SDS011;58645;43.068;25.610;2022-08-11T09:31:58;2.25;;;1.63;;
70985;SDS011;58645;43.068;25.610;2022-08-11T09:34:24;2.72;;;1.45;;
70985;SDS011;58645;43.068;25.610;2022-08-11T09:36:51;3.13;;;2.50;;
70985;SDS011;58645;43.068;25.610;2022-08-11T09:39:37;2.30;;;1.90;;
70985;SDS011;58645;43.068;25.610;2022-08-11T09:42:23;3.47;;;1.73;;
70985;SDS011;58645;43.068;25.610;2022-08-11T09:45:11;2.30;;;1.60;;
70985;SDS011;58645;43.068;25.610;2022-08-11T09:47:37;3.30;;;1.65;;
70985;SDS011;58645;43.068;25.610;2022-08-11T09:50:08;2.20;;;1.48;;
70985;SDS011;58645;43.068;25.610;2022-08-11T09:52:36;1.67;;;1.42;;
70985;SDS011;58645;43.068;25.610;2022-08-11T09:55:03;1.92;;;1.52;;
70985;SDS011;58645;43.068;25.610;2022-08-11T09:57:35;5.28;;;1.92;;
70985;SDS011;58645;43.068;25.610;2022-08-11T10:00:28;3.17;;;2.20;;
70985;SDS011;58645;43.068;25.610;2022-08-11T10:02:56;2.38;;;1.38;;
70985;SDS011;58645;43.068;25.610;2022-08-11T10:05:25;2.72;;;1.65;;
70985;SDS011;58645;43.068;25.610;2022-08-11T10:08:10;2.95;;;1.65;;
70985;SDS011;58645;43.068;25.610;2022-08-11T10:10:38;2.97;;;2.08;;
70985;SDS011;58645;43.068;25.610;2022-08-11T10:13:15;3.42;;;1.92;;
70985;SDS011;58645;43.068;25.610;2022-08-11T10:15:45;3.58;;;1.92;;
70985;SDS011;58645;43.068;25.610;2022-08-11T10:18:14;2.17;;;1.63;;
70985;SDS011;58645;43.068;25.610;2022-08-11T10:21:01;2.05;;;1.85;;
70985;SDS011;58645;43.068;25.610;2022-08-11T10:23:31;2.80;;;1.88;;
70985;SDS011;58645;43.068;25.610;2022-08-11T10:26:34;2.20;;;1.88;;
70985;SDS011;58645;43.068;25.610;2022-08-11T10:29:23;2.60;;;1.00;;
70985;SDS011;58645;43.068;25.610;2022-08-11T10:32:20;3.03;;;1.50;;
70985;SDS011;58645;43.068;25.610;2022-08-11T10:35:07;2.80;;;1.42;;
70985;SDS011;58645;43.068;25.610;2022-08-11T10:37:36;4.95;;;1.73;;
70985;SDS011;58645;43.068;25.610;2022-08-11T10:40:03;2.70;;;1.77;;
70985;SDS011;58645;43.068;25.610;2022-08-11T10:42:31;2.30;;;1.45;;
70985;SDS011;58645;43.068;25.610;2022-08-11T10:45:16;4.85;;;1.88;;
70985;SDS011;58645;43.068;25.610;2022-08-11T10:48:01;5.95;;;1.60;;
70985;SDS011;58645;43.068;25.610;2022-08-11T10:50:29;2.00;;;1.88;;
70985;SDS011;58645;43.068;25.610;2022-08-11T10:53:14;3.97;;;2.03;;
70985;SDS011;58645;43.068;25.610;2022-08-11T10:56:01;3.70;;;1.52;;
70985;SDS011;58645;43.068;25.610;2022-08-11T10:58:47;2.63;;;2.00;;
70985;SDS011;58645;43.068;25.610;2022-08-11T11:01:14;2.63;;;2.17;;
70985;SDS011;58645;43.068;25.610;2022-08-11T11:03:46;2.42;;;1.88;;
70985;SDS011;58645;43.068;25.610;2022-08-11T11:09:11;2.33;;;1.92;;
70985;SDS011;58645;43.068;25.610;2022-08-11T11:11:47;2.00;;;1.48;;
70985;SDS011;58645;43.068;25.610;2022-08-11T11:14:35;1.80;;;1.48;;
70985;SDS011;58645;43.068;25.610;2022-08-11T11:17:22;3.83;;;1.83;;
70985;SDS011;58645;43.068;25.610;2022-08-11T11:20:11;3.50;;;2.22;;
70985;SDS011;58645;43.068;25.610;2022-08-11T11:22:41;2.78;;;1.88;;
70985;SDS011;58645;43.068;25.610;2022-08-11T11:34:16;3.78;;;2.22;;
70985;SDS011;58645;43.068;25.610;2022-08-11T11:36:57;3.03;;;2.10;;
70985;SDS011;58645;43.068;25.610;2022-08-11T11:39:28;5.97;;;1.95;;
70985;SDS011;58645;43.068;25.610;2022-08-11T11:41:57;2.60;;;1.60;;
70985;SDS011;58645;43.068;25.610;2022-08-11T11:44:26;3.10;;;1.60;;
70985;SDS011;58645;43.068;25.610;2022-08-11T11:46:52;2.33;;;1.63;;
70985;SDS011;58645;43.068;25.610;2022-08-11T11:49:20;3.53;;;1.60;;
70985;SDS011;58645;43.068;25.610;2022-08-11T11:51:57;7.55;;;1.83;;
70985;SDS011;58645;43.068;25.610;2022-08-11T11:54:25;4.78;;;2.17;;
70985;SDS011;58645;43.068;25.610;2022-08-11T11:56:54;2.95;;;1.50;;
70985;SDS011;58645;43.068;25.610;2022-08-11T11:59:22;1.98;;;1.73;;
70985;SDS011;58645;43.068;25.610;2022-08-11T12:02:08;2.40;;;1.80;;
70985;SDS011;58645;43.068;25.610;2022-08-11T12:04:36;5.05;;;1.40;;
70985;SDS011;58645;43.068;25.610;2022-08-11T12:07:05;2.53;;;1.83;;
70985;SDS011;58645;43.068;25.610;2022-08-11T12:09:51;3.25;;;2.10;;
70985;SDS011;58645;43.068;25.610;2022-08-11T12:12:18;2.10;;;1.90;;
70985;SDS011;58645;43.068;25.610;2022-08-11T12:15:03;2.10;;;1.40;;
70985;SDS011;58645;43.068;25.610;2022-08-11T12:17:31;1.88;;;1.67;;
70985;SDS011;58645;43.068;25.610;2022-08-11T12:19:58;4.18;;;2.40;;
70985;SDS011;58645;43.068;25.610;2022-08-11T12:22:24;3.70;;;3.05;;
70985;SDS011;58645;43.068;25.610;2022-08-11T12:25:09;4.72;;;2.03;;
70985;SDS011;58645;43.068;25.610;2022-08-11T12:27:54;2.80;;;2.20;;
70985;SDS011;58645;43.068;25.610;2022-08-11T12:30:20;2.60;;;1.50;;
70985;SDS011;58645;43.068;25.610;2022-08-11T12:32:46;2.75;;;1.90;;
70985;SDS011;58645;43.068;25.610;2022-08-11T12:35:13;3.40;;;2.33;;
70985;SDS011;58645;43.068;25.610;2022-08-11T12:37:42;2.88;;;2.08;;
70985;SDS011;58645;43.068;25.610;2022-08-11T12:40:14;3.83;;;2.30;;
70985;SDS011;58645;43.068;25.610;2022-08-11T12:43:01;2.30;;;2.08;;
70985;SDS011;58645;43.068;25.610;2022-08-11T12:45:47;5.65;;;1.90;;
70985;SDS011;58645;43.068;25.610;2022-08-11T12:48:18;2.78;;;2.30;;
70985;SDS011;58645;43.068;25.610;2022-08-11T12:51:05;3.67;;;1.75;;
70985;SDS011;58645;43.068;25.610;2022-08-11T12:53:53;4.47;;;1.95;;
70985;SDS011;58645;43.068;25.610;2022-08-11T12:56:23;2.78;;;1.50;;
70985;SDS011;58645;43.068;25.610;2022-08-11T12:59:11;2.03;;;1.73;;
70985;SDS011;58645;43.068;25.610;2022-08-11T13:01:56;3.20;;;1.55;;
70985;SDS011;58645;43.068;25.610;2022-08-11T13:07:27;2.40;;;2.20;;
70985;SDS011;58645;43.068;25.610;2022-08-11T13:09:56;3.67;;;1.77;;
70985;SDS011;58645;43.068;25.610;2022-08-11T13:12:25;2.80;;;1.95;;
70985;SDS011;58645;43.068;25.610;2022-08-11T13:15:12;2.33;;;1.60;;
70985;SDS011;58645;43.068;25.610;2022-08-11T13:17:39;3.35;;;1.67;;
70985;SDS011;58645;43.068;25.610;2022-08-11T13:20:10;3.35;;;2.10;;
70985;SDS011;58645;43.068;25.610;2022-08-11T13:22:38;2.13;;;1.58;;
70985;SDS011;58645;43.068;25.610;2022-08-11T13:25:09;3.58;;;2.17;;
70985;SDS011;58645;43.068;25.610;2022-08-11T13:27:38;2.88;;;1.70;;
70985;SDS011;58645;43.068;25.610;2022-08-11T13:30:04;2.92;;;1.70;;
70985;SDS011;58645;43.068;25.610;2022-08-11T13:32:49;4.75;;;1.95;;
70985;SDS011;58645;43.068;25.610;2022-08-11T13:35:15;2.97;;;1.60;;
70985;SDS011;58645;43.068;25.610;2022-08-11T13:37:43;2.30;;;2.00;;
70985;SDS011;58645;43.068;25.610;2022-08-11T13:40:11;3.75;;;1.67;;
70985;SDS011;58645;43.068;25.610;2022-08-11T13:42:38;6.35;;;2.30;;
70985;SDS011;58645;43.068;25.610;2022-08-11T13:45:05;5.82;;;1.63;;
70985;SDS011;58645;43.068;25.610;2022-08-11T13:47:33;4.38;;;1.75;;
70985;SDS011;58645;43.068;25.610;2022-08-11T13:50:00;3.30;;;2.05;;
70985;SDS011;58645;43.068;25.610;2022-08-11T13:52:27;4.57;;;1.98;;
70985;SDS011;58645;43.068;25.610;2022-08-11T13:54:53;5.70;;;2.20;;
70985;SDS011;58645;43.068;25.610;2022-08-11T13:57:20;2.92;;;1.63;;
70985;SDS011;58645;43.068;25.610;2022-08-11T13:59:51;3.35;;;1.90;;
70985;SDS011;58645;43.068;25.610;2022-08-11T14:02:20;2.63;;;2.25;;
70985;SDS011;58645;43.068;25.610;2022-08-11T14:04:53;3.63;;;2.17;;
70985;SDS011;58645;43.068;25.610;2022-08-11T14:07:31;3.78;;;1.73;;
70985;SDS011;58645;43.068;25.610;2022-08-11T14:10:08;4.00;;;2.03;;
70985;SDS011;58645;43.068;25.610;2022-08-11T14:12:37;3.22;;;2.35;;
70985;SDS011;58645;43.068;25.610;2022-08-11T14:15:26;4.20;;;2.17;;
70985;SDS011;58645;43.068;25.610;2022-08-11T14:17:57;4.22;;;2.55;;
70985;SDS011;58645;43.068;25.610;2022-08-11T14:20:36;4.50;;;2.35;;
70985;SDS011;58645;43.068;25.610;2022-08-11T14:23:28;4.38;;;3.08;;
70985;SDS011;58645;43.068;25.610;2022-08-11T14:26:19;4.68;;;2.88;;
70985;SDS011;58645;43.068;25.610;2022-08-11T14:28:53;7.63;;;2.70;;
70985;SDS011;58645;43.068;25.610;2022-08-11T14:31:26;4.18;;;2.45;;
70985;SDS011;58645;43.068;25.610;2022-08-11T14:33:56;4.95;;;1.90;;
70985;SDS011;58645;43.068;25.610;2022-08-11T14:36:27;2.97;;;2.50;;
70985;SDS011;58645;43.068;25.610;2022-08-11T14:38:55;4.18;;;2.47;;
70985;SDS011;58645;43.068;25.610;2022-08-11T14:41:22;3.45;;;2.08;;
70985;SDS011;58645;43.068;25.610;2022-08-11T14:44:08;2.60;;;2.00;;
70985;SDS011;58645;43.068;25.610;2022-08-11T14:46:54;3.88;;;2.35;;
70985;SDS011;58645;43.068;25.610;2022-08-11T14:49:34;3.15;;;2.17;;
70985;SDS011;58645;43.068;25.610;2022-08-11T14:52:03;2.58;;;1.73;;
70985;SDS011;58645;43.068;25.610;2022-08-11T14:54:33;2.85;;;2.10;;
70985;SDS011;58645;43.068;25.610;2022-08-11T14:57:19;3.40;;;2.22;;
70985;SDS011;58645;43.068;25.610;2022-08-11T14:59:47;3.38;;;2.00;;
70985;SDS011;58645;43.068;25.610;2022-08-11T15:02:14;4.43;;;2.08;;
70985;SDS011;58645;43.068;25.610;2022-08-11T15:05:02;2.65;;;1.67;;
70985;SDS011;58645;43.068;25.610;2022-08-11T15:07:30;4.07;;;2.45;;
70985;SDS011;58645;43.068;25.610;2022-08-11T15:09:57;4.20;;;2.53;;
70985;SDS011;58645;43.068;25.610;2022-08-11T15:12:26;2.97;;;1.70;;
70985;SDS011;58645;43.068;25.610;2022-08-11T15:14:53;3.60;;;2.35;;
70985;SDS011;58645;43.068;25.610;2022-08-11T15:17:38;4.72;;;2.35;;
70985;SDS011;58645;43.068;25.610;2022-08-11T15:20:06;4.68;;;2.08;;
70985;SDS011;58645;43.068;25.610;2022-08-11T15:22:53;3.85;;;1.63;;
70985;SDS011;58645;43.068;25.610;2022-08-11T15:28:06;5.75;;;2.10;;
70985;SDS011;58645;43.068;25.610;2022-08-11T15:30:53;2.38;;;1.98;;
70985;SDS011;58645;43.068;25.610;2022-08-11T15:33:39;3.25;;;1.85;;
70985;SDS011;58645;43.068;25.610;2022-08-11T15:36:27;4.05;;;2.13;;
70985;SDS011;58645;43.068;25.610;2022-08-11T15:42:30;3.28;;;1.85;;
70985;SDS011;58645;43.068;25.610;2022-08-11T15:45:16;2.03;;;1.83;;
70985;SDS011;58645;43.068;25.610;2022-08-11T15:48:09;3.65;;;2.05;;
70985;SDS011;58645;43.068;25.610;2022-08-11T15:50:41;2.83;;;1.88;;
70985;SDS011;58645;43.068;25.610;2022-08-11T15:53:20;5.43;;;2.00;;
70985;SDS011;58645;43.068;25.610;2022-08-11T15:55:48;2.72;;;1.85;;
70985;SDS011;58645;43.068;25.610;2022-08-11T15:58:15;2.22;;;1.88;;
70985;SDS011;58645;43.068;25.610;2022-08-11T16:01:03;3.08;;;1.70;;
70985;SDS011;58645;43.068;25.610;2022-08-11T16:03:50;4.55;;;1.95;;
70985;SDS011;58645;43.068;25.610;2022-08-11T16:06:37;2.65;;;1.63;;
70985;SDS011;58645;43.068;25.610;2022-08-11T16:09:47;4.13;;;1.45;;
70985;SDS011;58645;43.068;25.610;2022-08-11T16:12:17;3.65;;;2.20;;
70985;SDS011;58645;43.068;25.610;2022-08-11T16:14:48;4.07;;;1.95;;
70985;SDS011;58645;43.068;25.610;2022-08-11T16:17:39;1.90;;;1.70;;
70985;SDS011;58645;43.068;25.610;2022-08-11T16:20:08;2.78;;;2.00;;
70985;SDS011;58645;43.068;25.610;2022-08-11T16:22:36;2.47;;;2.00;;
70985;SDS011;58645;43.068;25.610;2022-08-11T16:25:09;2.42;;;2.13;;
70985;SDS011;58645;43.068;25.610;2022-08-11T16:27:40;2.42;;;1.95;;
70985;SDS011;58645;43.068;25.610;2022-08-11T16:30:09;4.80;;;2.33;;
70985;SDS011;58645;43.068;25.610;2022-08-11T16:32:37;4.35;;;2.10;;
70985;SDS011;58645;43.068;25.610;2022-08-11T16:35:06;2.35;;;1.95;;
70985;SDS011;58645;43.068;25.610;2022-08-11T16:38:13;3.78;;;2.00;;
70985;SDS011;58645;43.068;25.610;2022-08-11T16:41:00;4.30;;;1.85;;
70985;SDS011;58645;43.068;25.610;2022-08-11T16:43:33;2.92;;;1.92;;
70985;SDS011;58645;43.068;25.610;2022-08-11T16:46:22;3.00;;;1.60;;
70985;SDS011;58645;43.068;25.610;2022-08-11T16:49:11;4.65;;;2.15;;
70985;SDS011;58645;43.068;25.610;2022-08-11T16:51:42;2.40;;;1.67;;
70985;SDS011;58645;43.068;25.610;2022-08-11T16:54:08;1.90;;;1.70;;
70985;SDS011;58645;43.068;25.610;2022-08-11T16:56:41;3.58;;;1.70;;
70985;SDS011;58645;43.068;25.610;2022-08-11T17:01:47;2.90;;;2.03;;
70985;SDS011;58645;43.068;25.610;2022-08-11T17:04:23;3.30;;;2.20;;
70985;SDS011;58645;43.068;25.610;2022-08-11T17:07:11;3.83;;;2.20;;
70985;SDS011;58645;43.068;25.610;2022-08-11T17:09:59;3.47;;;1.80;;
70985;SDS011;58645;43.068;25.610;2022-08-11T17:12:48;5.22;;;2.00;;
70985;SDS011;58645;43.068;25.610;2022-08-11T17:15:41;3.83;;;2.17;;
70985;SDS011;58645;43.068;25.610;2022-08-11T17:18:30;2.42;;;2.22;;
70985;SDS011;58645;43.068;25.610;2022-08-11T17:21:05;3.30;;;2.05;;
70985;SDS011;58645;43.068;25.610;2022-08-11T17:23:37;3.42;;;2.25;;
70985;SDS011;58645;43.068;25.610;2022-08-11T17:26:47;3.65;;;1.95;;
70985;SDS011;58645;43.068;25.610;2022-08-11T17:29:24;2.90;;;1.73;;
70985;SDS011;58645;43.068;25.610;2022-08-11T17:31:53;2.38;;;1.70;;
70985;SDS011;58645;43.068;25.610;2022-08-11T17:34:39;2.88;;;1.88;;
70985;SDS011;58645;43.068;25.610;2022-08-11T17:37:26;3.65;;;2.28;;
70985;SDS011;58645;43.068;25.610;2022-08-11T17:39:55;2.65;;;1.95;;
70985;SDS011;58645;43.068;25.610;2022-08-11T17:42:24;2.65;;;2.40;;
70985;SDS011;58645;43.068;25.610;2022-08-11T17:45:16;4.75;;;2.78;;
70985;SDS011;58645;43.068;25.610;2022-08-11T17:48:02;3.28;;;2.20;;
70985;SDS011;58645;43.068;25.610;2022-08-11T17:50:48;2.97;;;2.55;;
70985;SDS011;58645;43.068;25.610;2022-08-11T17:53:17;3.55;;;2.05;;
70985;SDS011;58645;43.068;25.610;2022-08-11T17:56:02;3.90;;;2.97;;
70985;SDS011;58645;43.068;25.610;2022-08-11T17:58:49;5.05;;;2.45;;
70985;SDS011;58645;43.068;25.610;2022-08-11T18:01:36;2.47;;;2.00;;
70985;SDS011;58645;43.068;25.610;2022-08-11T18:04:06;4.03;;;1.77;;
70985;SDS011;58645;43.068;25.610;2022-08-11T18:06:35;5.47;;;2.50;;
70985;SDS011;58645;43.068;25.610;2022-08-11T18:09:03;3.38;;;2.60;;
70985;SDS011;58645;43.068;25.610;2022-08-11T18:11:54;4.63;;;1.88;;
70985;SDS011;58645;43.068;25.610;2022-08-11T18:14:44;3.55;;;2.15;;
70985;SDS011;58645;43.068;25.610;2022-08-11T18:17:31;3.42;;;2.30;;
70985;SDS011;58645;43.068;25.610;2022-08-11T18:23:02;3.10;;;2.28;;
70985;SDS011;58645;43.068;25.610;2022-08-11T18:25:49;4.85;;;2.90;;
70985;SDS011;58645;43.068;25.610;2022-08-11T18:28:42;4.40;;;2.30;;
70985;SDS011;58645;43.068;25.610;2022-08-11T18:31:28;4.22;;;2.75;;
70985;SDS011;58645;43.068;25.610;2022-08-11T18:34:20;4.53;;;2.75;;
70985;SDS011;58645;43.068;25.610;2022-08-11T18:37:13;5.40;;;2.22;;
70985;SDS011;58645;43.068;25.610;2022-08-11T18:40:10;4.28;;;2.72;;
70985;SDS011;58645;43.068;25.610;2022-08-11T18:42:59;5.30;;;2.83;;
70985;SDS011;58645;43.068;25.610;2022-08-11T18:45:48;4.05;;;2.60;;
70985;SDS011;58645;43.068;25.610;2022-08-11T18:48:35;3.25;;;2.35;;
70985;SDS011;58645;43.068;25.610;2022-08-11T18:51:23;4.88;;;2.53;;
70985;SDS011;58645;43.068;25.610;2022-08-11T18:54:09;4.18;;;2.25;;
70985;SDS011;58645;43.068;25.610;2022-08-11T18:56:55;3.97;;;2.20;;
70985;SDS011;58645;43.068;25.610;2022-08-11T18:59:46;7.45;;;2.78;;
70985;SDS011;58645;43.068;25.610;2022-08-11T19:02:34;4.68;;;2.80;;
70985;SDS011;58645;43.068;25.610;2022-08-11T19:05:21;7.43;;;3.50;;
70985;SDS011;58645;43.068;25.610;2022-08-11T19:10:51;7.00;;;3.78;;
70985;SDS011;58645;43.068;25.610;2022-08-11T19:13:38;8.02;;;3.90;;
70985;SDS011;58645;43.068;25.610;2022-08-11T19:16:25;9.40;;;3.45;;
70985;SDS011;58645;43.068;25.610;2022-08-11T19:19:11;6.85;;;3.78;;
70985;SDS011;58645;43.068;25.610;2022-08-11T19:21:57;6.32;;;3.03;;
70985;SDS011;58645;43.068;25.610;2022-08-11T19:24:45;8.52;;;3.97;;
70985;SDS011;58645;43.068;25.610;2022-08-11T19:27:30;3.83;;;2.95;;